Time;durP1;ratioP1;P1;durP2;ratioP2;P2;SDS_P1;SDS_P2;PMS_P1;PMS_P2;Temp;Humidity;BMP_temperature;BMP_pressure;BME280_temperature;BME280_humidity;BME280_pressure;Samples;Min_cycle;Max_cycle;Signal;HPM_P1;HPM_P2
2020/12/31 00:00:08;;;;;;;12.10;5.28;;;;;;;;;;5070996;28;20029;-67
2020/12/31 00:02:34;;;;;;;7.32;4.63;;;;;;;;;;5070447;28;20060;-66
2020/12/31 00:05:01;;;;;;;11.90;4.75;;;;;;;;;;5071051;28;20032;-64
2020/12/31 00:07:27;;;;;;;10.30;4.85;;;;;;;;;;5071028;28;20032;-67
2020/12/31 00:09:53;;;;;;;7.50;4.82;;;;;;;;;;5070744;28;20041;-66
2020/12/31 00:12:20;;;;;;;6.88;4.78;;;;;;;;;;5070873;28;20036;-65
2020/12/31 00:14:46;;;;;;;7.63;4.28;;;;;;;;;;5070853;28;20048;-65
2020/12/31 00:17:12;;;;;;;8.23;4.78;;;;;;;;;;5070845;28;20545;-65
2020/12/31 00:19:39;;;;;;;7.22;5.03;;;;;;;;;;5072017;28;20085;-66
2020/12/31 00:22:05;;;;;;;16.73;5.72;;;;;;;;;;5072110;28;20044;-65
2020/12/31 00:24:31;;;;;;;9.27;4.80;;;;;;;;;;5070272;28;20442;-64
2020/12/31 00:26:58;;;;;;;9.02;4.93;;;;;;;;;;5070880;28;20036;-65
2020/12/31 00:29:24;;;;;;;8.10;4.45;;;;;;;;;;5070829;28;20047;-64
2020/12/31 00:31:50;;;;;;;9.65;5.22;;;;;;;;;;5070548;28;20502;-65
2020/12/31 00:34:16;;;;;;;9.70;4.80;;;;;;;;;;5070924;28;20091;-66
2020/12/31 00:36:43;;;;;;;9.18;5.22;;;;;;;;;;5069316;28;20064;-66
2020/12/31 00:39:09;;;;;;;10.73;5.15;;;;;;;;;;5070518;28;20052;-66
2020/12/31 00:41:35;;;;;;;8.20;5.20;;;;;;;;;;5070580;28;20036;-66
2020/12/31 00:44:05;;;;;;;8.85;5.47;;;;;;;;;;5070477;28;20028;-66
2020/12/31 00:46:31;;;;;;;9.05;5.47;;;;;;;;;;5070592;28;20047;-67
2020/12/31 00:48:57;;;;;;;10.98;5.63;;;;;;;;;;5069160;28;20075;-65
2020/12/31 00:51:24;;;;;;;12.18;6.82;;;;;;;;;;5070704;28;20027;-66
2020/12/31 00:53:50;;;;;;;12.05;6.75;;;;;;;;;;5070492;28;20033;-65
2020/12/31 00:56:19;;;;;;;12.30;6.72;;;;;;;;;;5044377;28;20048;-66
2020/12/31 00:58:46;;;;;;;;;;;8.60;62.20;;;;;;5073335;28;20028;-66
2020/12/31 01:01:13;;;;;;;10.02;6.18;;;;;;;;;;5073619;28;19916;-66
2020/12/31 01:03:39;;;;;;;12.50;6.53;;;;;;;;;;5073137;28;20539;-65
2020/12/31 01:06:05;;;;;;;12.95;7.15;;;;;;;;;;5073628;28;20063;-67
2020/12/31 01:08:31;;;;;;;14.40;6.95;;;;;;;;;;5074379;28;20036;-64
2020/12/31 01:10:58;;;;;;;15.50;8.63;;;;;;;;;;5073911;28;20459;-66
2020/12/31 01:13:24;;;;;;;13.82;7.80;;;;;;;;;;5073923;28;20024;-65
2020/12/31 01:15:50;;;;;;;14.40;7.75;;;;;;;;;;5073865;28;20028;-64
2020/12/31 01:18:16;;;;;;;16.55;8.50;;;;;;;;;;5073488;28;20043;-65
2020/12/31 01:20:43;;;;;;;21.17;9.10;;;;;;;;;;5073646;28;20032;-66
2020/12/31 01:23:09;;;;;;;11.02;7.50;;;;;;;;;;5073739;28;20032;-65
2020/12/31 01:25:36;;;;;;;12.75;7.72;;;;;;;;;;5073614;28;20132;-65
2020/12/31 01:28:03;;;;;;;15.02;8.05;;;;;;;;;;5073740;28;20032;-67
2020/12/31 01:30:29;;;;;;;12.85;7.65;;;;;;;;;;5073449;28;20447;-64
2020/12/31 01:32:56;;;;;;;11.25;6.88;;;8.80;61.40;;;;;;5073544;28;20032;-66
2020/12/31 01:35:22;;;;;;;15.02;7.85;;;;;;;;;;5073207;28;20063;-67
2020/12/31 01:37:49;;;;;;;13.35;8.13;;;;;;;;;;5073319;28;20475;-65
2020/12/31 01:40:15;;;;;;;14.85;8.00;;;;;;;;;;5073466;28;20491;-65
2020/12/31 01:42:42;;;;;;;11.70;7.38;;;8.70;61.90;;;;;;5073273;28;20028;-67
2020/12/31 01:45:09;;;;;;;15.00;7.78;;;;;;;;;;5073372;28;20037;-65
2020/12/31 01:47:35;;;;;;;13.15;7.13;;;;;;;;;;5072889;28;20039;-66
2020/12/31 01:50:02;;;;;;;15.18;7.57;;;;;;;;;;5073615;28;20037;-66
2020/12/31 01:52:29;;;;;;;11.52;7.15;;;8.60;62.10;;;;;;5073207;28;20479;-65
2020/12/31 01:54:56;;;;;;;12.50;7.70;;;8.50;62.20;;;;;;5073059;28;20040;-66
2020/12/31 01:57:22;;;;;;;14.43;7.43;;;;;;;;;;5072750;28;20394;-67
2020/12/31 01:59:49;;;;;;;10.63;7.22;;;8.70;61.80;;;;;;5073053;28;20017;-65
2020/12/31 02:02:15;;;;;;;14.38;7.47;;;;;;;;;;5072796;28;20025;-65
2020/12/31 02:04:42;;;;;;;10.82;6.70;;;;;;;;;;5072908;28;20029;-63
2020/12/31 02:07:08;;;;;;;10.68;7.03;;;;;;;;;;5071831;28;20045;-65
2020/12/31 02:09:34;;;;;;;11.85;7.50;;;;;;;;;;5072925;28;20086;-64
2020/12/31 02:12:04;;;;;;;10.73;6.22;;;8.70;60.80;;;;;;5073003;28;20028;-66
2020/12/31 02:14:31;;;;;;;10.07;6.35;;;8.50;61.90;;;;;;5072581;28;20058;-65
2020/12/31 02:16:58;;;;;;;12.82;6.57;;;;;;;;;;5072664;28;20078;-66
2020/12/31 02:19:25;;;;;;;14.38;6.32;;;;;;;;;;5050635;28;20095;-65
2020/12/31 02:21:52;;;;;;;10.52;6.28;;;8.80;61.30;;;;;;5052441;28;20045;-65
2020/12/31 02:24:19;;;;;;;10.55;6.60;;;8.80;61.00;;;;;;5052246;28;20407;-65
2020/12/31 02:26:47;;;;;;;10.50;6.47;;;8.90;60.80;;;;;;5051066;28;20488;-66
2020/12/31 02:29:15;;;;;;;10.18;6.53;;;9.00;60.50;;;;;;5052324;28;20181;-66
2020/12/31 02:31:42;;;;;;;10.65;6.13;;;9.00;60.30;;;;;;5052207;28;20025;-65
2020/12/31 02:34:09;;;;;;;10.82;6.57;;;;;;;;;;5052383;28;20033;-65
2020/12/31 02:36:37;;;;;;;10.32;5.88;;;9.00;59.90;;;;;;5052230;28;20028;-65
2020/12/31 02:39:08;;;;;;;8.57;5.68;;;9.00;59.70;;;;;;5052306;28;20241;-63
2020/12/31 02:41:35;;;;;;;9.52;5.43;;;;;;;;;;5052449;28;20029;-66
2020/12/31 02:44:01;;;;;;;11.23;6.03;;;;;;;;;;5052383;28;20037;-64
2020/12/31 02:46:28;;;;;;;11.57;5.72;;;;;;;;;;5051277;28;20037;-66
2020/12/31 02:48:54;;;;;;;8.35;5.13;;;;;;;;;;5050712;28;20060;-66
2020/12/31 02:51:21;;;;;;;9.75;5.78;;;;;;;;;;5052065;28;20025;-65
2020/12/31 02:53:47;;;;;;;9.20;5.85;;;;;;;;;;5052009;28;20033;-66
2020/12/31 02:56:19;;;;;;;9.23;5.60;;;8.70;60.70;;;;;;5051651;28;20491;-67
2020/12/31 02:58:46;;;;;;;9.52;5.72;;;;;;;;;;5051803;28;20047;-65
2020/12/31 03:01:12;;;;;;;8.13;5.43;;;;;;;;;;5051532;28;20041;-65
2020/12/31 03:03:39;;;;;;;11.13;6.45;;;8.80;60.80;;;;;;5052051;28;20025;-62
2020/12/31 03:06:05;;;;;;;10.80;5.88;;;;;;;;;;5051832;28;20033;-64
2020/12/31 03:08:32;;;;;;;10.27;5.97;;;;;;;;;;5051742;28;20079;-66
2020/12/31 03:10:58;;;;;;;10.43;5.80;;;;;;;;;;5051931;28;20037;-65
2020/12/31 03:13:25;;;;;;;10.13;5.72;;;8.60;60.90;;;;;;5051420;28;20421;-65
2020/12/31 03:15:51;;;;;;;;;;;8.60;61.30;;;;;;5051869;28;20065;-65
2020/12/31 03:18:18;;;;;;;10.60;5.78;;;;;;;;;;5051185;28;19909;-65
2020/12/31 03:20:44;;;;;;;9.77;5.93;;;;;;;;;;5051603;28;20021;-65
2020/12/31 03:23:12;;;;;;;9.05;5.75;;;8.60;61.10;;;;;;5051343;28;20025;-63
2020/12/31 03:25:38;;;;;;;8.98;5.38;;;;;;;;;;5051129;28;20380;-65
2020/12/31 03:28:05;;;;;;;8.43;5.47;;;;;;;;;;5051291;28;20142;-65
2020/12/31 03:30:32;;;;;;;10.82;5.85;;;8.60;61.20;;;;;;5051092;28;20472;-66
2020/12/31 03:32:58;;;;;;;13.30;6.72;;;;;;;;;;5051618;28;20025;-65
2020/12/31 03:35:24;;;;;;;10.25;5.50;;;;;;;;;;5051266;28;20135;-65
2020/12/31 03:37:51;;;;;;;10.18;6.22;;;;;;;;;;5051171;28;20568;-65
2020/12/31 03:40:18;;;;;;;10.70;6.00;;;8.70;61.00;;;;;;5051128;28;20067;-65
2020/12/31 03:42:44;;;;;;;10.95;5.40;;;;;;;;;;5051025;28;20321;-64
2020/12/31 03:45:11;;;;;;;10.73;6.07;;;;;;;;;;5050989;28;20044;-65
2020/12/31 03:47:37;;;;;;;10.35;5.80;;;;;;;;;;5051121;28;20482;-65
2020/12/31 03:50:05;;;;;;;9.63;6.15;;;9.00;60.50;;;;;;5051488;28;20072;-66
2020/12/31 03:52:32;;;;;;;11.32;6.00;;;;;;;;;;5051045;28;20143;-64
2020/12/31 03:54:58;;;;;;;11.20;5.38;;;;;;;;;;5051140;28;20032;-65
2020/12/31 03:57:25;;;;;;;8.60;5.60;;;;;;;;;;5050916;28;20029;-65
2020/12/31 03:59:51;;;;;;;11.43;5.88;;;;;;;;;;5050807;28;20056;-64
2020/12/31 04:02:17;;;;;;;10.10;6.03;;;;;;;;;;5050943;28;20675;-66
2020/12/31 04:04:44;;;;;;;9.82;6.10;;;;;;;;;;5051003;28;20032;-65
2020/12/31 04:07:10;;;;;;;11.02;6.03;;;;;;;;;;5050924;28;20032;-65
2020/12/31 04:09:36;;;;;;;9.68;5.75;;;;;;;;;;5050783;28;20033;-65
2020/12/31 04:12:03;;;;;;;8.65;5.35;;;;;;;;;;5051108;28;20057;-66
2020/12/31 04:14:29;;;;;;;9.13;5.20;;;;;;;;;;5050782;28;20045;-65
2020/12/31 04:16:55;;;;;;;;;;;8.90;60.30;;;;;;5050271;28;20041;-66
2020/12/31 04:19:21;;;;;;;7.05;5.25;;;;;;;;;;5050799;28;20279;-65
2020/12/31 04:21:48;;;;;;;10.65;5.32;;;;;;;;;;5057997;28;20039;-65
2020/12/31 04:24:14;;;;;;;9.95;5.25;;;;;;;;;;5054261;28;20432;-65
2020/12/31 04:26:41;;;;;;;9.43;5.65;;;;;;;;;;5057678;28;20048;-65
2020/12/31 04:29:07;;;;;;;8.43;4.63;;;;;;;;;;5049322;28;20041;-66
2020/12/31 04:31:34;;;;;;;7.45;5.47;;;;;;;;;;5053931;28;20044;-65
2020/12/31 04:34:00;;;;;;;7.40;5.10;;;;;;;;;;5054587;28;20395;-66
2020/12/31 04:36:26;;;;;;;7.78;4.80;;;;;;;;;;5054592;28;20029;-66
2020/12/31 04:38:53;;;;;;;8.90;5.38;;;;;;;;;;5054387;28;20075;-66
2020/12/31 04:41:19;;;;;;;8.95;5.35;;;;;;;;;;5054328;28;20110;-66
2020/12/31 04:43:46;;;;;;;8.00;5.30;;;;;;;;;;5052847;28;20040;-66
2020/12/31 04:46:18;;;;;;;7.97;5.07;;;8.80;60.60;;;;;;5054348;28;20438;-65
2020/12/31 04:48:54;;;;;;;11.27;5.40;;;8.90;60.40;;;;;;5054325;28;20048;-65
2020/12/31 04:51:25;;;;;;;7.07;4.82;;;8.90;60.20;;;;;;5054438;28;20483;-65
2020/12/31 04:53:53;;;;;;;12.63;5.45;;;8.80;60.00;;;;;;5054275;28;20111;-65
2020/12/31 04:56:24;;;;;;;9.50;4.38;;;8.50;60.70;;;;;;5054243;28;20029;-67
2020/12/31 04:58:50;;;;;;;8.27;4.93;;;;;;;;;;5054307;28;20106;-66
2020/12/31 05:01:16;;;;;;;8.13;5.20;;;;;;;;;;5053946;28;20068;-65
2020/12/31 05:03:42;;;;;;;6.53;4.35;;;;;;;;;;5054211;28;20025;-64
2020/12/31 05:06:09;;;;;;;9.18;4.78;;;;;;;;;;5053591;28;20403;-65
2020/12/31 05:08:35;;;;;;;8.98;4.82;;;;;;;;;;5055934;28;20036;-66
2020/12/31 05:11:02;;;;;;;9.55;5.45;;;;;;;;;;5054086;28;20120;-66
2020/12/31 05:13:28;;;;;;;8.32;4.97;;;;;;;;;;5053811;28;20086;-66
2020/12/31 05:15:54;;;;;;;6.93;4.70;;;;;;;;;;5053922;28;20487;-66
2020/12/31 05:18:31;;;;;;;7.68;4.90;;;8.40;60.50;;;;;;5053794;28;20138;-65
2020/12/31 05:20:57;;;;;;;;;;;8.60;61.10;;;;;;5054236;28;20025;-66
2020/12/31 05:23:29;;;;;;;7.47;4.05;;;8.70;60.00;;;;;;5053335;28;19935;-66
2020/12/31 05:25:56;;;;;;;7.22;4.22;;;8.70;60.10;;;;;;5051811;28;20060;-65
2020/12/31 05:28:28;;;;;;;7.15;4.43;;;8.70;60.10;;;;;;5053649;28;20490;-65
2020/12/31 05:31:09;;;;;;;7.82;4.43;;;8.70;60.20;;;;;;5040276;28;20048;-65
2020/12/31 05:33:40;;;;;;;7.35;4.70;;;8.60;59.90;;;;;;5053353;28;20029;-65
2020/12/31 05:36:23;;;;;;;6.22;4.35;;;8.50;60.40;;;;;;5053334;28;20555;-65
2020/12/31 05:39:00;;;;;;;8.77;4.38;;;8.60;60.40;;;;;;5053188;28;20395;-66
2020/12/31 05:41:38;;;;;;;8.30;4.30;;;8.50;60.40;;;;;;5053222;28;20033;-65
2020/12/31 05:44:06;;;;;;;6.28;4.18;;;8.40;60.60;;;;;;5053234;28;20036;-65
2020/12/31 05:46:34;;;;;;;6.75;4.38;;;8.30;61.60;;;;;;4346308;28;10000802;-66
2020/12/31 05:49:05;;;;;;;6.50;4.30;;;8.30;61.30;;;;;;5046529;28;20036;-65
2020/12/31 05:51:33;;;;;;;8.60;4.55;;;8.50;60.90;;;;;;5051279;28;20029;-66
2020/12/31 05:54:13;;;;;;;6.30;4.20;;;8.60;60.50;;;;;;5051008;28;20052;-66
2020/12/31 05:56:41;;;;;;;9.23;4.32;;;8.70;60.10;;;;;;5050818;28;20444;-67
2020/12/31 05:59:16;;;;;;;6.53;4.47;;;8.60;60.00;;;;;;5050128;28;20120;-65
2020/12/31 06:01:53;;;;;;;5.50;4.20;;;8.50;60.30;;;;;;5050465;28;20468;-64
2020/12/31 06:04:21;;;;;;;9.30;4.35;;;;;;;;;;5050531;28;20421;-66
2020/12/31 06:06:50;;;;;;;5.15;4.20;;;8.60;59.90;;;;;;5050335;28;20067;-64
2020/12/31 06:09:27;;;;;;;9.48;4.50;;;8.60;60.00;;;;;;5049210;28;20044;-65
2020/12/31 06:11:59;;;;;;;6.63;4.03;;;8.50;60.20;;;;;;5050438;28;20087;-65
2020/12/31 06:14:29;;;;;;;6.13;4.53;;;8.50;60.10;;;;;;5050280;28;20043;-66
2020/12/31 06:17:01;;;;;;;7.88;4.30;;;8.40;60.10;;;;;;5050607;28;20029;-65
2020/12/31 06:19:41;;;;;;;6.10;4.55;;;8.50;60.30;;;;;;5050457;28;20041;-67
2020/12/31 06:22:12;;;;;;;7.57;4.40;;;8.50;60.30;;;;;;5047217;28;20094;-67
2020/12/31 06:24:47;;;;;;;9.38;4.65;;;8.50;60.30;;;;;;5053092;28;20096;-66
2020/12/31 06:27:17;;;;;;;7.17;5.00;;;8.60;60.10;;;;;;5066382;28;20037;-66
2020/12/31 06:29:45;;;;;;;8.85;5.00;;;8.70;60.00;;;;;;5050806;28;20029;-65
2020/12/31 06:32:16;;;;;;;9.73;5.20;;;8.70;59.90;;;;;;5051867;28;20059;-67
2020/12/31 06:34:43;;;;;;;6.38;4.55;;;;;;;;;;5051917;28;20029;-65
2020/12/31 06:37:10;;;;;;;7.03;4.60;;;8.70;59.60;;;;;;5050046;28;20336;-65
2020/12/31 06:39:37;;;;;;;;;;;8.70;60.10;;;;;;5053721;28;20039;-66
2020/12/31 06:42:03;;;;;;;9.30;4.78;;;;;;;;;;5059090;28;19916;-66
2020/12/31 06:44:30;;;;;;;7.53;4.88;;;8.70;59.50;;;;;;5065758;28;20079;-65
2020/12/31 06:46:57;;;;;;;8.63;4.65;;;;;;;;;;5063146;28;20098;-65
2020/12/31 06:49:23;;;;;;;9.32;5.13;;;;;;;;;;5065781;28;20067;-65
2020/12/31 06:51:49;;;;;;;5.70;4.10;;;;;;;;;;5064564;28;20422;-65
2020/12/31 06:54:28;;;;;;;5.72;4.18;;;8.60;59.60;;;;;;5063178;28;20024;-65
2020/12/31 06:56:55;;;;;;;8.90;4.55;;;;;;;;;;5064448;28;20082;-65
2020/12/31 06:59:33;;;;;;;7.13;4.80;;;8.50;59.90;;;;;;5063391;28;20044;-65
2020/12/31 07:02:03;;;;;;;5.95;4.10;;;8.60;60.20;;;;;;5068013;28;20115;-65
2020/12/31 07:04:30;;;;;;;8.40;5.10;;;;;;;;;;5065141;28;20032;-65
2020/12/31 07:06:56;;;;;;;;;;;8.50;59.80;;;;;;5068457;28;20039;-65
2020/12/31 07:09:36;;;;;;;8.05;5.22;;;8.60;59.60;;;;;;5063160;28;19916;-67
2020/12/31 07:12:05;;;;;;;13.05;5.50;;;8.60;59.60;;;;;;5068052;28;20463;-65
2020/12/31 07:14:33;;;;;;;8.43;5.03;;;8.60;59.80;;;;;;5064202;28;20379;-67
2020/12/31 07:16:59;;;;;;;10.38;4.90;;;;;;;;;;5067850;28;20029;-66
2020/12/31 07:19:37;;;;;;;10.63;5.47;;;8.60;59.80;;;;;;5064285;28;20055;-66
2020/12/31 07:22:20;;;;;;;9.50;5.55;;;8.60;59.80;;;;;;5064704;28;20033;-66
2020/12/31 07:24:51;;;;;;;11.68;5.72;;;8.60;59.70;;;;;;5064752;28;20028;-65
2020/12/31 07:27:39;;;;;;;15.65;6.30;;;8.60;59.90;;;;;;5062233;28;20033;-68
2020/12/31 07:30:08;;;;;;;9.50;5.63;;;8.60;59.80;;;;;;5051241;28;20072;-65
2020/12/31 07:33:09;;;;;;;11.68;6.13;;;8.70;59.70;;;;;;5037734;28;20028;-66
2020/12/31 07:35:42;;;;;;;9.48;5.63;;;8.60;59.60;;;;;;5050349;28;20029;-66
2020/12/31 07:38:14;;;;;;;10.10;5.38;;;8.60;59.60;;;;;;5050479;28;20044;-66
2020/12/31 07:40:47;;;;;;;10.18;5.55;;;8.60;59.70;;;;;;5052089;28;20028;-67
2020/12/31 07:43:27;;;;;;;8.98;5.40;;;8.60;59.70;;;;;;5069716;28;20048;-65
2020/12/31 07:45:56;;;;;;;11.32;5.63;;;8.60;59.60;;;;;;5067999;28;20067;-68
2020/12/31 07:48:24;;;;;;;11.55;5.63;;;8.60;59.50;;;;;;5069655;28;20037;-66
2020/12/31 07:51:01;;;;;;;12.13;5.72;;;8.50;59.70;;;;;;5067391;28;20050;-68
2020/12/31 07:53:29;;;;;;;9.13;5.00;;;;;;;;;;5069798;28;20039;-66
2020/12/31 07:55:56;;;;;;;9.63;5.82;;;8.60;59.80;;;;;;5059151;28;20047;-65
2020/12/31 07:58:23;;;;;;;;;;;8.60;60.30;;;;;;5055060;28;20101;-66
2020/12/31 08:00:59;;;;;;;10.65;5.47;;;8.70;59.30;;;;;;5052690;28;19959;-66
2020/12/31 08:03:26;;;;;;;10.65;5.60;;;;;;;;;;5066945;28;20040;-67
2020/12/31 08:06:03;;;;;;;16.58;7.05;;;8.60;59.40;;;;;;5065151;28;20025;-66
2020/12/31 08:08:29;;;;;;;9.93;6.20;;;;;;;;;;5070754;28;20040;-66
2020/12/31 08:10:56;;;;;;;12.90;6.57;;;;;;;;;;5067369;28;20044;-65
2020/12/31 08:13:22;;;;;;;10.88;6.80;;;;;;;;;;5069808;28;20028;-67
2020/12/31 08:15:49;;;;;;;12.00;6.18;;;8.80;58.80;;;;;;5068923;28;20336;-65
2020/12/31 08:18:16;;;;;;;10.65;6.05;;;8.80;58.90;;;;;;5069093;28;20024;-69
2020/12/31 08:20:45;;;;;;;11.57;6.38;;;8.70;59.10;;;;;;5066342;28;20356;-66
2020/12/31 08:23:18;;;;;;;11.00;6.70;;;8.60;59.20;;;;;;5068108;28;20039;-67
2020/12/31 08:25:45;;;;;;;15.35;6.63;;;8.30;59.60;;;;;;5070350;28;20040;-66
2020/12/31 08:28:17;;;;;;;11.27;6.35;;;8.20;60.60;;;;;;5056677;28;20029;-66
2020/12/31 08:30:43;;;;;;;11.88;6.20;;;;;;;;;;5053904;28;20021;-66
2020/12/31 08:33:11;;;;;;;11.85;6.90;;;8.60;60.20;;;;;;5054308;28;20033;-66
2020/12/31 08:35:37;;;;;;;12.13;6.63;;;;;;;;;;5052227;28;20024;-67
2020/12/31 08:38:06;;;;;;;10.00;6.28;;;8.40;59.60;;;;;;5053886;28;20591;-67
2020/12/31 08:40:40;;;;;;;11.55;6.38;;;7.80;60.90;;;;;;5053903;28;20032;-66
2020/12/31 08:43:17;;;;;;;10.18;5.70;;;8.00;61.70;;;;;;5052393;28;20471;-66
2020/12/31 08:45:44;;;;;;;13.52;7.43;;;;;;;;;;5053392;28;20036;-67
2020/12/31 08:48:23;;;;;;;13.68;7.57;;;7.90;61.80;;;;;;5054020;28;20086;-65
2020/12/31 08:51:04;;;;;;;16.20;7.97;;;8.20;61.20;;;;;;5053422;28;20106;-66
2020/12/31 08:53:46;;;;;;;17.15;8.75;;;8.40;60.80;;;;;;5053603;28;20060;-66
2020/12/31 08:56:13;;;;;;;16.33;8.35;;;;;;;;;;5053246;28;20017;-66
2020/12/31 08:58:39;;;;;;;17.45;8.30;;;;;;;;;;5053581;28;20151;-66
2020/12/31 09:01:05;;;;;;;16.42;8.27;;;;;;;;;;5053205;28;20368;-65
2020/12/31 09:03:32;;;;;;;16.05;7.95;;;;;;;;;;5053555;28;20028;-65
2020/12/31 09:06:00;;;;;;;15.30;7.95;;;8.70;59.90;;;;;;5051725;28;20032;-64
2020/12/31 09:08:27;;;;;;;19.33;9.38;;;8.70;59.80;;;;;;4345303;28;10000699;-65
2020/12/31 09:11:00;;;;;;;22.05;8.55;;;8.70;59.80;;;;;;5050808;28;20052;-66
2020/12/31 09:13:27;;;;;;;18.40;8.63;;;;;;;;;;5037996;28;20053;-65
2020/12/31 09:16:10;;;;;;;17.63;8.38;;;8.50;59.60;;;;;;5050375;28;20055;-65
2020/12/31 09:18:37;;;;;;;16.70;8.30;;;;;;;;;;5038109;28;20483;-65
2020/12/31 09:21:04;;;;;;;17.63;8.63;;;;;;;;;;5050575;28;20033;-66
2020/12/31 09:23:30;;;;;;;19.70;8.38;;;;;;;;;;5049708;28;20045;-63
2020/12/31 09:25:56;;;;;;;18.85;9.23;;;;;;;;;;5050881;28;20126;-65
2020/12/31 09:28:25;;;;;;;16.40;8.63;;;;;;;;;;5050948;28;20040;-65
2020/12/31 09:30:52;;;;;;;22.38;9.65;;;9.00;59.50;;;;;;5031010;28;20755;-64
2020/12/31 09:33:20;;;;;;;18.08;9.48;;;9.00;59.30;;;;;;5054087;28;20025;-65
2020/12/31 09:35:47;;;;;;;16.58;8.73;;;;;;;;;;5054239;28;20021;-64
2020/12/31 09:38:13;;;;;;;21.13;9.82;;;;;;;;;;5051092;28;20182;-64
2020/12/31 09:40:39;;;;;;;18.40;9.52;;;;;;;;;;5056705;28;20066;-67
2020/12/31 09:43:06;;;;;;;21.17;10.27;;;;;;;;;;5055814;28;20053;-67
2020/12/31 09:45:32;;;;;;;18.98;9.95;;;;;;;;;;5055593;28;20059;-65
2020/12/31 09:48:02;;;;;;;19.73;9.50;;;8.70;59.10;;;;;;5057058;28;20051;-65
2020/12/31 09:50:29;;;;;;;18.08;9.23;;;;;;;;;;5054139;28;20124;-65
2020/12/31 09:52:56;;;;;;;19.27;9.50;;;;;;;;;;5049593;28;20043;-64
2020/12/31 09:55:23;;;;;;;17.35;9.32;;;9.00;59.40;;;;;;5054046;28;20029;-64
2020/12/31 09:57:49;;;;;;;17.98;9.13;;;9.00;59.20;;;;;;5058028;28;20165;-64
2020/12/31 10:00:16;;;;;;;18.58;9.60;;;;;;;;;;5032391;28;20117;-65
2020/12/31 10:02:42;;;;;;;19.05;9.20;;;;;;;;;;5035082;28;20086;-65
2020/12/31 10:05:09;;;;;;;15.98;8.57;;;;;;;;;;5055065;28;20079;-64
2020/12/31 10:07:35;;;;;;;18.85;8.80;;;;;;;;;;5061531;28;20027;-64
2020/12/31 10:10:01;;;;;;;17.45;9.43;;;;;;;;;;5054231;28;20056;-64
2020/12/31 10:12:29;;;;;;;15.70;8.75;;;;;;;;;;5054059;28;20025;-65
2020/12/31 10:14:57;;;;;;;19.88;10.50;;;;;;;;;;5057566;28;20032;-64
2020/12/31 10:17:23;;;;;;;19.58;9.27;;;;;;;;;;5053810;28;20036;-63
2020/12/31 10:19:49;;;;;;;14.80;8.70;;;;;;;;;;5051246;28;20032;-66
2020/12/31 10:22:15;;;;;;;17.38;9.50;;;;;;;;;;5031786;28;20065;-65
2020/12/31 10:24:42;;;;;;;18.35;9.45;;;;;;;;;;5035952;28;20033;-65
2020/12/31 10:27:08;;;;;;;17.38;8.60;;;;;;;;;;5032946;28;20128;-66
2020/12/31 10:29:34;;;;;;;16.67;8.77;;;;;;;;;;5043977;28;20037;-65
2020/12/31 10:32:01;;;;;;;22.00;9.80;;;;;;;;;;5031480;28;20033;-67
2020/12/31 10:34:27;;;;;;;19.45;8.32;;;;;;;;;;5029829;28;20029;-65
2020/12/31 10:36:55;;;;;;;17.88;9.00;;;9.30;58.20;;;;;;5040380;28;20088;-65
2020/12/31 10:39:24;;;;;;;20.27;8.98;;;9.40;58.00;;;;;;5049015;28;20039;-65
2020/12/31 10:41:52;;;;;;;17.85;9.35;;;9.40;57.60;;;;;;5033623;28;20554;-64
2020/12/31 10:44:18;;;;;;;17.70;9.43;;;;;;;;;;5037797;28;20147;-66
2020/12/31 10:46:45;;;;;;;18.10;9.65;;;;;;;;;;5039122;28;20044;-64
2020/12/31 10:49:11;;;;;;;21.67;10.35;;;;;;;;;;5060402;28;20103;-64
2020/12/31 10:51:39;;;;;;;16.05;9.77;;;9.50;58.00;;;;;;5051693;28;20028;-65
2020/12/31 10:54:06;;;;;;;21.25;9.85;;;;;;;;;;5039337;28;20042;-66
2020/12/31 10:56:32;;;;;;;19.98;9.88;;;;;;;;;;5056140;28;20033;-66
2020/12/31 10:58:58;;;;;;;18.02;9.57;;;9.30;57.90;;;;;;5054525;28;20043;-65
2020/12/31 11:01:24;;;;;;;17.98;9.93;;;;;;;;;;5059330;28;20119;-66
2020/12/31 11:03:51;;;;;;;20.77;9.98;;;;;;;;;;5054353;28;20048;-65
2020/12/31 11:06:18;;;;;;;20.48;10.35;;;9.40;57.90;;;;;;5057376;28;20029;-64
2020/12/31 11:08:44;;;;;;;24.27;11.25;;;;;;;;;;5055062;28;20083;-63
2020/12/31 11:11:15;;;;;;;19.42;10.02;;;9.20;58.40;;;;;;5056206;28;20037;-65
2020/12/31 11:13:41;;;;;;;19.98;10.30;;;;;;;;;;5056250;28;20559;-66
2020/12/31 11:16:08;;;;;;;23.50;11.35;;;9.40;58.30;;;;;;5054677;28;20130;-64
2020/12/31 11:18:34;;;;;;;;;;;9.40;58.80;;;;;;5057657;28;20395;-65
2020/12/31 11:21:00;;;;;;;19.65;10.60;;;;;;;;;;5053863;28;19912;-65
2020/12/31 11:23:26;;;;;;;18.13;10.30;;;;;;;;;;5059233;28;20036;-65
2020/12/31 11:25:53;;;;;;;25.77;11.27;;;;;;;;;;5053248;28;20053;-64
2020/12/31 11:28:19;;;;;;;27.52;11.85;;;;;;;;;;5052742;28;20055;-65
2020/12/31 11:30:45;;;;;;;19.45;10.25;;;;;;;;;;5048062;28;20029;-65
2020/12/31 11:33:11;;;;;;;23.40;11.82;;;;;;;;;;5048886;28;20037;-65
2020/12/31 11:35:38;;;;;;;29.35;12.05;;;;;;;;;;5047203;28;20036;-64
2020/12/31 11:38:04;;;;;;;21.58;11.68;;;;;;;;;;5048792;28;20132;-65
2020/12/31 11:40:30;;;;;;;23.13;12.05;;;;;;;;;;5048083;28;20041;-65
2020/12/31 11:42:57;;;;;;;23.42;12.10;;;9.30;58.70;;;;;;5048002;28;20091;-64
2020/12/31 11:45:23;;;;;;;20.10;10.02;;;;;;;;;;5048105;28;20344;-64
2020/12/31 11:47:49;;;;;;;23.23;10.25;;;;;;;;;;5048361;28;20394;-64
2020/12/31 11:50:16;;;;;;;18.98;9.70;;;;;;;;;;5048263;28;20036;-66
2020/12/31 11:52:42;;;;;;;20.27;11.40;;;;;;;;;;5048319;28;20082;-64
2020/12/31 11:55:08;;;;;;;21.55;10.48;;;;;;;;;;5047917;28;20036;-63
2020/12/31 11:57:35;;;;;;;19.30;9.60;;;;;;;;;;5046890;28;20522;-65
2020/12/31 12:00:01;;;;;;;20.75;9.68;;;;;;;;;;5048549;28;20139;-65
2020/12/31 12:02:27;;;;;;;19.08;10.05;;;;;;;;;;5048012;28;20029;-64
2020/12/31 12:04:53;;;;;;;21.30;9.63;;;;;;;;;;5046382;28;20025;-64
2020/12/31 12:07:20;;;;;;;14.43;8.80;;;;;;;;;;5055395;28;20052;-65
2020/12/31 12:09:46;;;;;;;16.63;9.13;;;;;;;;;;5049408;28;20050;-65
2020/12/31 12:12:12;;;;;;;15.32;8.02;;;;;;;;;;5046662;28;20032;-65
2020/12/31 12:14:39;;;;;;;16.40;7.93;;;;;;;;;;5048057;28;20044;-64
2020/12/31 12:17:05;;;;;;;15.63;8.60;;;;;;;;;;5048163;28;20065;-65
2020/12/31 12:19:31;;;;;;;16.08;8.95;;;;;;;;;;5047147;28;20551;-64
2020/12/31 12:22:01;;;;;;;16.70;9.07;;;9.70;57.20;;;;;;5047138;28;20041;-65
2020/12/31 12:24:27;;;;;;;17.38;8.75;;;;;;;;;;5047422;28;20150;-65
2020/12/31 12:26:54;;;;;;;16.27;8.45;;;;;;;;;;5049335;28;20076;-64
2020/12/31 12:29:21;;;;;;;16.77;8.23;;;;;;;;;;5046137;28;20120;-64
2020/12/31 12:31:47;;;;;;;16.55;9.10;;;;;;;;;;5047671;28;20430;-64
2020/12/31 12:34:13;;;;;;;15.43;9.02;;;;;;;;;;5047539;28;20041;-65
2020/12/31 12:36:39;;;;;;;20.67;9.90;;;;;;;;;;5047645;28;20044;-63
2020/12/31 12:39:06;;;;;;;17.70;9.10;;;9.90;57.70;;;;;;5047695;28;20040;-64
2020/12/31 12:41:33;;;;;;;18.73;7.97;;;10.00;57.00;;;;;;5047305;28;20045;-65
2020/12/31 12:44:00;;;;;;;17.70;8.52;;;;;;;;;;5046634;28;20463;-64
2020/12/31 12:46:26;;;;;;;15.90;7.93;;;;;;;;;;5047259;28;20040;-64
2020/12/31 12:48:53;;;;;;;14.77;8.75;;;;;;;;;;5047062;28;20047;-63
2020/12/31 12:51:19;;;;;;;14.65;7.90;;;;;;;;;;5048186;28;20152;-64
2020/12/31 12:53:45;;;;;;;17.08;8.45;;;;;;;;;;5050773;28;20057;-63
2020/12/31 12:56:12;;;;;;;13.77;7.90;;;;;;;;;;5037456;28;20040;-63
2020/12/31 12:58:39;;;;;;;13.93;8.05;;;10.00;56.50;;;;;;5049919;28;20032;-65
2020/12/31 13:01:05;;;;;;;15.88;8.10;;;;;;;;;;5039330;28;20079;-62
2020/12/31 13:03:31;;;;;;;16.52;8.52;;;;;;;;;;5039679;28;20111;-63
2020/12/31 13:05:57;;;;;;;15.30;7.57;;;;;;;;;;5035283;28;20037;-63
2020/12/31 13:08:25;;;;;;;13.43;7.00;;;;;;;;;;5063914;28;20044;-64
2020/12/31 13:10:51;;;;;;;16.65;8.60;;;;;;;;;;5058918;28;20138;-64
2020/12/31 13:13:17;;;;;;;16.73;8.07;;;;;;;;;;4707231;28;9999855;-62
2020/12/31 13:15:44;;;;;;;15.75;8.25;;;;;;;;;;5058321;28;20033;-65
2020/12/31 13:18:11;;;;;;;15.40;8.23;;;10.10;56.90;;;;;;5033973;28;20153;-64
2020/12/31 13:20:40;;;;;;;16.50;8.57;;;10.30;57.00;;;;;;5056418;28;20025;-64
2020/12/31 13:23:07;;;;;;;14.52;7.95;;;;;;;;;;5061650;28;20051;-64
2020/12/31 13:25:33;;;;;;;16.17;9.13;;;;;;;;;;5069812;28;20116;-65
2020/12/31 13:28:00;;;;;;;19.95;8.73;;;;;;;;;;5058794;28;20029;-64
2020/12/31 13:30:26;;;;;;;17.90;8.73;;;;;;;;;;5052576;28;20820;-64
2020/12/31 13:32:53;;;;;;;17.55;9.50;;;;;;;;;;5052631;28;20032;-63
2020/12/31 13:35:19;;;;;;;15.77;9.43;;;;;;;;;;5050854;28;20124;-65
2020/12/31 13:37:46;;;;;;;16.30;9.25;;;;;;;;;;5051201;28;20044;-64
2020/12/31 13:40:12;;;;;;;20.63;10.43;;;;;;;;;;5050510;28;20053;-64
2020/12/31 13:42:39;;;;;;;19.70;9.98;;;;;;;;;;5047893;28;20116;-64
2020/12/31 13:45:06;;;;;;;20.88;10.98;;;9.40;57.80;;;;;;5043990;28;20036;-64
2020/12/31 13:47:33;;;;;;;21.58;11.27;;;;;;;;;;5052628;28;20044;-63
2020/12/31 13:49:59;;;;;;;28.30;14.35;;;;;;;;;;5052740;28;20033;-63
2020/12/31 13:52:26;;;;;;;25.67;12.98;;;;;;;;;;5053073;28;20033;-64
2020/12/31 13:54:52;;;;;;;29.33;13.73;;;;;;;;;;5052277;28;20403;-64
2020/12/31 13:57:18;;;;;;;25.48;12.20;;;;;;;;;;5052343;28;20033;-65